Blairstown Advisory Only (1N7)
Blairstown, NJ
Field Elevation: 371
Lat: 40°58.27N  Long: 74°59.85W
CTAF/Unicom Freq: 123.0000
   
     For Weather-by-Phone, call 908-362-1700
Weather Advisories
2017-02-26   12:35 Z
Altimeter 29.94" Hg
Wind 320° @ 7 KT
Gusts 17 KT
Visibility 10 SM
Ceiling OVC046
Temperature 1° C (34° F)
Dewpoint -8° C (18° F)
Relative Humidity 49%
Density Altitude --
Condensation Altitude 5,100 feet
Wind Chill: -3° C (27° F)
Wind and Runways
Indicated Runway = 25
Headwind = 2 kt
Crosswind = 7 kt
History
 
 
 
More Info
NOAA Forecast
 
 
About Us
Belfort Instrument
 
 
FAA Disclaimer: The data displayed is for advisory purposes only and is not to be used for flight planning or operations. For official data, please call 908-362-1700 to hear the current automated AWOS voice message.
  METAR 1N7 261235Z AUTO 32007G17KT 10 SM OVC046 01/M08 A2994